Time;durP1;ratioP1;P1;durP2;ratioP2;P2;SDS_P1;SDS_P2;PMS_P1;PMS_P2;Temp;Humidity;BMP_temperature;BMP_pressure;BME280_temperature;BME280_humidity;BME280_pressure;Samples;Min_cycle;Max_cycle;Signal;HPM_P1;HPM_P2
2023/08/14 00:01:03;;;;;;;6.70;3.90;;;;;;;18.57;92.64;100699.43;105231;1256;83540;-61
2023/08/14 00:03:36;;;;;;;6.50;3.70;;;;;;;18.52;92.81;100694.85;105216;1256;73992;-61
2023/08/14 00:06:03;;;;;;;4.40;3.70;;;;;;;18.48;92.91;100697.05;105207;1256;69196;-61
2023/08/14 00:08:30;;;;;;;5.40;3.50;;;;;;;18.44;93.06;100696.58;105273;1257;69439;-61
2023/08/14 00:10:57;;;;;;;5.10;3.80;;;;;;;18.42;93.19;100699.91;105207;1256;73572;-61
2023/08/14 00:13:24;;;;;;;3.80;3.40;;;;;;;18.39;93.28;100696.58;105211;1256;82750;-61
2023/08/14 00:15:51;;;;;;;4.30;3.90;;;;;;;18.39;93.60;100695.85;105209;1258;73637;-61
2023/08/14 00:18:18;;;;;;;5.40;3.50;;;;;;;18.39;93.75;100701.52;105260;1255;69192;-61
2023/08/14 00:20:46;;;;;;;4.50;4.00;;;;;;;18.37;93.97;100701.10;105188;1256;69181;-61
2023/08/14 00:23:13;;;;;;;5.90;3.80;;;;;;;18.35;94.10;100706.58;105262;1258;75369;-60
2023/08/14 00:25:40;;;;;;;5.30;3.60;;;;;;;18.36;94.54;100705.46;105230;1259;83187;-61
2023/08/14 00:28:06;;;;;;;6.20;4.30;;;;;;;18.39;94.93;100711.27;105237;1256;72738;-61
2023/08/14 00:30:33;;;;;;;5.00;4.40;;;;;;;18.42;95.22;100715.67;105180;1256;69022;-61
2023/08/14 00:33:01;;;;;;;4.50;4.00;;;;;;;18.44;95.42;100717.09;105237;1258;69183;-61
2023/08/14 00:35:28;;;;;;;5.20;4.10;;;;;;;18.46;95.45;100717.16;105211;1256;74713;-61
2023/08/14 00:37:55;;;;;;;4.40;4.00;;;;;;;18.48;95.57;100716.17;105214;1258;83252;-61
2023/08/14 00:40:22;;;;;;;4.70;4.00;;;;;;;18.50;95.70;100717.44;105220;1256;73561;-61
2023/08/14 00:42:49;;;;;;;4.70;3.80;;;;;;;18.52;95.83;100716.80;105244;1257;69165;-61
2023/08/14 00:45:17;;;;;;;4.30;3.90;;;;;;;18.54;95.80;100721.83;105175;1256;69211;-61
2023/08/14 00:47:47;;;;;;;5.60;4.40;;;;;;;18.53;95.73;100726.27;105269;1257;75535;-61
2023/08/14 00:50:14;;;;;;;4.00;3.60;;;;;;;18.53;95.76;100729.88;105262;1259;82317;-61
2023/08/14 00:52:44;;;;;;;6.70;4.20;;;;;;;18.53;95.78;100730.52;105272;1258;72467;-60
2023/08/14 00:55:14;;;;;;;4.20;3.80;;;;;;;18.54;95.98;100729.20;105150;1256;69060;-61
2023/08/14 00:57:40;;;;;;;;;;;;;;;18.57;96.08;100726.23;105227;1258;69136;-61
2023/08/14 01:00:09;;;;;;;4.30;3.50;;;;;;;18.57;96.21;100729.73;105209;1256;74747;-61
2023/08/14 01:02:36;;;;;;;4.50;3.60;;;;;;;18.56;96.08;100726.63;105181;1260;83124;-61
2023/08/14 01:05:03;;;;;;;5.70;3.70;;;;;;;18.55;95.95;100727.77;105216;1260;73547;-61
2023/08/14 01:07:30;;;;;;;6.90;3.90;;;;;;;18.55;96.06;100722.30;105241;1259;69100;-61
2023/08/14 01:09:58;;;;;;;4.10;3.60;;;;;;;18.54;96.14;100721.26;105211;1256;69278;-61
2023/08/14 01:12:37;;;;;;;5.80;3.70;;;;;;;18.53;96.09;100721.70;105169;1256;75885;-61
2023/08/14 01:15:16;;;;;;;5.10;4.00;;;;;;;18.52;96.18;100718.23;105175;1256;82442;-61
2023/08/14 01:17:48;;;;;;;6.80;4.10;;;;;;;18.53;96.41;100719.55;105188;1256;72760;-61
2023/08/14 01:20:18;;;;;;;7.30;3.70;;;;;;;18.57;96.65;100722.14;105180;1265;69070;-61
2023/08/14 01:22:51;;;;;;;4.80;4.20;;;;;;;18.58;96.57;100720.48;105265;1259;69195;-61
2023/08/14 01:25:31;;;;;;;4.40;4.00;;;;;;;18.59;96.62;100715.64;105297;1256;75346;-61
2023/08/14 01:27:59;;;;;;;;;;;;;;;18.59;96.70;100719.85;105184;1260;83377;-61
2023/08/14 01:30:26;;;;;;;4.90;3.90;;;;;;;18.57;96.60;100719.66;105134;1256;72688;-61
2023/08/14 01:32:53;;;;;;;5.80;3.80;;;;;;;18.53;96.47;100717.94;105231;1256;69124;-61
2023/08/14 01:35:23;;;;;;;4.50;3.80;;;;;;;18.50;96.41;100713.69;105183;1256;69169;-60
2023/08/14 01:38:05;;;;;;;5.30;4.10;;;;;;;18.47;96.29;100711.64;105283;1256;74496;-61
2023/08/14 01:40:35;;;;;;;4.40;4.00;;;;;;;18.41;96.25;100712.18;105292;1256;82833;-61
2023/08/14 01:43:13;;;;;;;4.70;4.00;;;;;;;18.36;96.29;100710.73;105139;1257;74132;-61
2023/08/14 01:45:41;;;;;;;9.20;4.00;;;;;;;18.32;96.32;100708.70;105255;1257;69183;-60
2023/08/14 01:48:09;;;;;;;4.20;3.80;;;;;;;18.27;96.34;100705.98;105222;1262;69116;-61
2023/08/14 01:50:38;;;;;;;4.50;4.00;;;;;;;18.25;96.58;100703.31;105293;1257;74638;-61
2023/08/14 01:53:06;;;;;;;4.50;4.10;;;;;;;18.21;96.54;100701.95;105268;1258;83335;-61
2023/08/14 01:55:33;;;;;;;4.90;4.20;;;;;;;18.21;97.02;100698.74;105246;1257;73777;-61
2023/08/14 01:58:00;;;;;;;4.70;4.20;;;;;;;18.21;97.05;100698.97;105128;1260;69330;-61
2023/08/14 02:00:29;;;;;;;5.20;4.60;;;;;;;18.21;97.43;100696.16;105256;1256;69238;-61
2023/08/14 02:02:57;;;;;;;6.50;4.30;;;;;;;18.23;97.79;100695.83;105309;1257;74633;-62
2023/08/14 02:05:24;;;;;;;4.80;4.10;;;;;;;18.23;97.88;100692.61;105177;1261;83619;-61
2023/08/14 02:07:51;;;;;;;4.90;3.90;;;;;;;18.25;98.10;100694.98;105243;1256;72778;-62
2023/08/14 02:10:20;;;;;;;5.20;4.40;;;;;;;18.27;98.44;100691.84;105312;1256;69176;-60
2023/08/14 02:12:47;;;;;;;5.50;4.40;;;;;;;18.28;98.45;100681.86;105285;1259;69187;-61
2023/08/14 02:15:14;;;;;;;6.20;4.30;;;;;;;18.30;98.38;100679.50;105157;1260;74563;-61
2023/08/14 02:17:41;;;;;;;4.70;4.00;;;;;;;18.29;98.45;100681.30;105327;1259;83152;-60
2023/08/14 02:20:09;;;;;;;6.20;3.90;;;;;;;18.31;98.88;100676.05;105248;1258;73804;-61
2023/08/14 02:22:36;;;;;;;6.40;4.10;;;;;;;18.35;99.16;100677.91;105204;1258;69235;-61
2023/08/14 02:25:03;;;;;;;5.10;4.30;;;;;;;18.33;98.58;100679.60;105231;1261;69197;-61
2023/08/14 02:27:30;;;;;;;4.20;3.80;;;;;;;18.29;98.42;100675.27;105246;1256;75548;-61
2023/08/14 02:29:58;;;;;;;5.90;4.10;;;;;;;18.26;98.24;100671.95;105236;1259;82464;-61
2023/08/14 02:32:25;;;;;;;4.30;3.90;;;;;;;18.22;98.13;100672.02;105162;1256;73679;-61
2023/08/14 02:34:54;;;;;;;4.70;4.30;;;;;;;18.17;98.10;100673.56;105242;1256;69146;-61
2023/08/14 02:37:21;;;;;;;4.10;3.80;;;;;;;18.14;98.14;100669.03;105250;1258;69082;-61
2023/08/14 02:39:48;;;;;;;5.30;4.10;;;;;;;18.09;98.17;100679.20;105186;1256;75320;-61
2023/08/14 02:42:16;;;;;;;5.70;3.80;;;;;;;18.05;98.16;100685.98;105278;1259;83505;-61
2023/08/14 02:44:46;;;;;;;4.60;4.20;;;;;;;18.01;98.37;100687.50;105236;1258;73728;-61
2023/08/14 02:47:13;;;;;;;4.30;3.90;;;;;;;17.99;98.33;100688.67;105261;1259;69320;-61
2023/08/14 02:49:41;;;;;;;4.60;4.10;;;;;;;17.95;98.37;100689.10;105321;1258;69156;-60
2023/08/14 02:52:07;;;;;;;4.70;3.90;;;;;;;17.92;98.40;100688.05;105243;1259;75629;-61
2023/08/14 02:54:34;;;;;;;5.00;4.40;;;;;;;17.92;98.74;100685.41;105236;1258;83442;-61
2023/08/14 02:57:01;;;;;;;4.50;4.10;;;;;;;17.92;98.91;100687.02;105224;1259;73669;-61
2023/08/14 02:59:28;;;;;;;4.80;4.40;;;;;;;17.92;99.04;100686.83;105172;1262;69203;-61
2023/08/14 03:01:55;;;;;;;6.50;5.10;;;;;;;17.95;99.57;100687.20;105151;1261;69182;-61
2023/08/14 03:04:22;;;;;;;7.30;4.90;;;;;;;18.02;100.00;100686.17;105239;1256;73415;-61
2023/08/14 03:06:49;;;;;;;7.90;5.00;;;;;;;18.11;100.00;100684.39;105254;1258;82540;-61
2023/08/14 03:09:16;;;;;;;9.60;4.50;;;;;;;18.20;100.00;100681.38;105221;1259;73656;-60
2023/08/14 03:11:43;;;;;;;5.20;4.30;;;;;;;18.26;100.00;100684.13;105238;1258;69210;-61
2023/08/14 03:14:10;;;;;;;5.30;4.80;;;;;;;18.32;100.00;100685.71;105279;1259;69120;-61
2023/08/14 03:16:37;;;;;;;7.70;4.60;;;;;;;18.37;100.00;100684.69;105151;1256;73608;-61
2023/08/14 03:19:04;;;;;;;5.70;4.90;;;;;;;18.42;100.00;100681.89;105211;1258;83281;-61
2023/08/14 03:21:31;;;;;;;6.10;4.80;;;;;;;18.48;100.00;100680.04;105261;1259;72227;-61
2023/08/14 03:23:58;;;;;;;9.80;5.50;;;;;;;18.56;100.00;100682.73;105211;1258;69217;-61
2023/08/14 03:26:25;;;;;;;6.10;5.50;;;;;;;18.63;100.00;100682.99;105201;1268;69111;-61
2023/08/14 03:28:52;;;;;;;5.90;4.70;;;;;;;18.70;100.00;100683.69;105142;1256;74599;-61
2023/08/14 03:31:19;;;;;;;5.70;5.00;;;;;;;18.77;100.00;100685.09;105282;1258;83617;-61
2023/08/14 03:33:46;;;;;;;6.90;5.30;;;;;;;18.83;100.00;100691.21;105295;1259;72704;-61
2023/08/14 03:36:13;;;;;;;6.30;4.70;;;;;;;18.89;100.00;100690.62;105203;1260;69078;-60
2023/08/14 03:38:41;;;;;;;7.50;5.00;;;;;;;18.95;100.00;100691.70;105258;1259;69174;-61
2023/08/14 03:41:08;;;;;;;5.50;4.80;;;;;;;19.01;100.00;100693.42;105262;1257;74587;-61
2023/08/14 03:43:35;;;;;;;6.60;4.80;;;;;;;19.04;100.00;100693.34;105149;1260;83651;-60
2023/08/14 03:46:02;;;;;;;5.40;4.90;;;;;;;19.07;100.00;100696.70;105165;1262;73447;-61
2023/08/14 03:48:29;;;;;;;7.40;4.80;;;;;;;19.10;100.00;100701.83;105279;1260;69123;-61
2023/08/14 03:50:56;;;;;;;5.80;5.10;;;;;;;19.10;100.00;100701.66;105248;1260;69202;-61
2023/08/14 03:53:23;;;;;;;5.30;4.80;;;;;;;19.10;100.00;100701.83;105159;1258;74668;-61
2023/08/14 03:55:50;;;;;;;5.80;5.20;;;;;;;19.11;100.00;100704.39;105205;1260;82449;-61
2023/08/14 03:58:17;;;;;;;5.60;5.10;;;;;;;19.12;100.00;100707.86;105126;1258;73454;-61
2023/08/14 04:00:46;;;;;;;5.90;4.90;;;;;;;19.14;100.00;100712.72;105293;1267;69095;-61
2023/08/14 04:03:14;;;;;;;5.60;5.00;;;;;;;19.17;100.00;100711.61;105327;1257;69058;-61
2023/08/14 04:05:42;;;;;;;5.20;4.70;;;;;;;19.20;100.00;100715.66;105132;1256;75420;-61
2023/08/14 04:08:09;;;;;;;5.30;4.70;;;;;;;19.21;100.00;100715.63;105230;1256;82573;-61
2023/08/14 04:10:39;;;;;;;5.80;4.90;;;;;;;19.23;100.00;100715.42;105280;1259;73810;-61
2023/08/14 04:13:06;;;;;;;6.80;4.60;;;;;;;19.25;100.00;100714.77;105191;1257;69104;-61
2023/08/14 04:15:33;;;;;;;5.40;4.80;;;;;;;19.28;100.00;100715.48;105261;1259;69187;-61
2023/08/14 04:18:00;;;;;;;6.00;4.90;;;;;;;19.32;100.00;100718.21;105203;1260;75636;-60
2023/08/14 04:20:27;;;;;;;9.90;4.70;;;;;;;19.34;100.00;100718.02;105309;1259;83866;-60
2023/08/14 04:22:54;;;;;;;6.80;5.10;;;;;;;19.38;100.00;100721.30;105289;1258;72410;-61
2023/08/14 04:25:21;;;;;;;7.70;4.90;;;;;;;19.40;100.00;100726.51;105170;1259;69187;-60
2023/08/14 04:27:48;;;;;;;5.30;4.40;;;;;;;19.41;100.00;100732.84;105324;1259;69196;-60
2023/08/14 04:30:16;;;;;;;7.10;5.20;;;;;;;19.41;100.00;100733.15;105313;1259;74596;-60
2023/08/14 04:32:43;;;;;;;6.10;5.00;;;;;;;19.42;100.00;100734.92;105194;1261;82954;-61
2023/08/14 04:35:11;;;;;;;5.80;5.20;;;;;;;19.43;100.00;100742.06;105462;1259;73953;-60
2023/08/14 04:37:38;;;;;;;6.40;5.40;;;;;;;19.46;100.00;100743.31;105381;1258;69066;-60
2023/08/14 04:40:07;;;;;;;7.90;5.50;;;;;;;19.47;100.00;100747.28;105369;1260;68999;-60
2023/08/14 04:42:34;;;;;;;8.70;5.50;;;;;;;19.48;100.00;100747.73;105380;1260;75616;-62
2023/08/14 04:45:01;;;;;;;6.20;5.60;;;;;;;19.51;100.00;100748.81;105311;1259;83390;-60
2023/08/14 04:47:28;;;;;;;5.80;5.20;;;;;;;19.52;100.00;100744.27;105219;1257;73663;-61
2023/08/14 04:49:59;;;;;;;7.90;5.80;;;;;;;19.55;100.00;100748.67;105205;1257;69093;-59
2023/08/14 04:52:26;;;;;;;6.00;5.10;;;;;;;19.57;100.00;100750.13;105213;1262;69049;-59
2023/08/14 04:54:53;;;;;;;7.10;5.30;;;;;;;19.60;100.00;100744.80;105240;1260;75805;-58
2023/08/14 04:57:22;;;;;;;6.70;5.60;;;;;;;19.66;100.00;100744.25;105056;1257;83388;-58
2023/08/14 04:59:50;;;;;;;8.10;5.30;;;;;;;19.70;100.00;100741.61;105294;1259;72560;-59
2023/08/14 05:02:17;;;;;;;6.20;5.60;;;;;;;19.74;100.00;100747.91;105304;1260;69136;-59
2023/08/14 05:04:46;;;;;;;7.30;5.70;;;;;;;19.78;100.00;100749.64;105136;1258;69071;-60
2023/08/14 05:07:13;;;;;;;6.20;5.60;;;;;;;19.81;100.00;100747.10;105292;1261;76040;-58
2023/08/14 05:09:40;;;;;;;8.30;5.30;;;;;;;19.84;100.00;100748.82;105214;1260;82283;-59
2023/08/14 05:12:07;;;;;;;6.50;5.30;;;;;;;19.86;100.00;100753.33;105486;1259;72954;-59
2023/08/14 05:14:34;;;;;;;5.50;4.90;;;;;;;19.90;100.00;100750.94;105287;1261;69173;-58
2023/08/14 05:17:01;;;;;;;7.90;5.50;;;;;;;19.94;100.00;100746.89;105174;1261;69278;-59
2023/08/14 05:19:29;;;;;;;9.20;5.20;;;;;;;19.99;100.00;100742.25;105414;1256;75840;-58
2023/08/14 05:21:56;;;;;;;6.60;5.70;;;;;;;20.05;100.00;100740.45;105236;1260;83330;-58
2023/08/14 05:24:23;;;;;;;5.50;5.00;;;;;;;20.09;100.00;100738.71;105196;1256;74046;-59
2023/08/14 05:26:50;;;;;;;6.90;5.00;;;;;;;20.15;100.00;100735.63;105341;1260;69125;-58
2023/08/14 05:29:17;;;;;;;9.40;5.20;;;;;;;20.23;100.00;100736.30;105241;1262;69199;-59
2023/08/14 05:31:44;;;;;;;8.70;5.90;;;;;;;20.30;100.00;100742.88;105180;1269;74692;-59
2023/08/14 05:34:11;;;;;;;8.10;5.20;;;;;;;20.36;100.00;100735.57;105306;1262;83363;-58
2023/08/14 05:36:38;;;;;;;6.00;5.50;;;;;;;20.41;100.00;100735.54;105162;1262;73754;-59
2023/08/14 05:39:06;;;;;;;6.40;5.00;;;;;;;20.46;100.00;100737.80;105272;1257;69148;-58
2023/08/14 05:41:33;;;;;;;6.40;5.00;;;;;;;20.52;100.00;100738.31;105217;1259;69211;-59
2023/08/14 05:44:00;;;;;;;6.30;5.50;;;;;;;20.59;100.00;100739.95;105210;1260;76090;-58
2023/08/14 05:46:27;;;;;;;5.60;4.80;;;;;;;20.66;100.00;100741.52;105239;1261;83148;-58
2023/08/14 05:48:54;;;;;;;8.30;5.20;;;;;;;20.74;100.00;100746.81;105206;1269;73737;-58
2023/08/14 05:51:20;;;;;;;5.90;4.90;;;;;;;20.86;100.00;100750.55;105149;1257;69093;-58
2023/08/14 05:53:47;;;;;;;8.60;5.30;;;;;;;21.03;100.00;100752.31;105173;1261;69128;-58
2023/08/14 05:56:14;;;;;;;5.60;4.60;;;;;;;21.21;100.00;100753.73;105103;1260;75630;-57
2023/08/14 05:58:41;;;;;;;5.90;4.70;;;;;;;21.42;100.00;100758.23;105267;1261;83635;-58
2023/08/14 06:01:08;;;;;;;5.40;4.60;;;;;;;21.61;100.00;100762.46;105132;1261;73793;-58
2023/08/14 06:03:35;;;;;;;4.80;4.20;;;;;;;21.77;100.00;100762.51;105150;1263;69180;-58
2023/08/14 06:06:11;;;;;;;6.10;4.20;;;;;;;21.92;100.00;100762.35;105158;1260;69502;-58
2023/08/14 06:08:38;;;;;;;5.50;4.00;;;;;;;22.05;100.00;100762.36;105272;1256;75652;-58
2023/08/14 06:11:05;;;;;;;5.10;3.80;;;;;;;22.19;100.00;100758.41;105169;1260;82474;-58
2023/08/14 06:13:32;;;;;;;5.40;3.50;;;;;;;22.36;100.00;100756.05;105192;1260;73839;-57
2023/08/14 06:15:59;;;;;;;5.60;4.00;;;;;;;22.50;99.62;100750.78;105270;1267;69214;-58
2023/08/14 06:18:26;;;;;;;6.00;3.60;;;;;;;22.61;99.01;100756.11;105376;1259;69145;-58
2023/08/14 06:20:54;;;;;;;4.30;3.70;;;;;;;22.70;98.33;100762.84;105467;1262;75568;-57
2023/08/14 06:23:20;;;;;;;5.90;4.10;;;;;;;22.79;97.34;100768.92;105246;1259;83218;-57
2023/08/14 06:25:47;;;;;;;4.50;3.50;;;;;;;22.87;96.62;100768.95;105222;1268;72696;-58
2023/08/14 06:28:14;;;;;;;5.30;3.70;;;;;;;22.95;95.94;100769.70;105176;1257;69126;-58
2023/08/14 06:30:41;;;;;;;6.10;3.70;;;;;;;23.03;95.28;100765.88;105201;1257;69196;-58
2023/08/14 06:33:08;;;;;;;6.90;3.90;;;;;;;23.08;94.71;100770.60;105160;1260;75843;-58
2023/08/14 06:35:35;;;;;;;4.30;3.90;;;;;;;23.15;94.41;100767.53;105196;1261;82645;-58
2023/08/14 06:38:02;;;;;;;5.60;4.20;;;;;;;23.24;93.81;100771.63;105164;1257;72625;-58
2023/08/14 06:40:29;;;;;;;6.10;3.60;;;;;;;23.33;93.23;100772.06;105271;1261;69142;-58
2023/08/14 06:42:56;;;;;;;4.20;3.60;;;;;;;23.44;92.67;100766.91;105415;1259;69655;-58
2023/08/14 06:45:23;;;;;;;4.70;3.80;;;;;;;23.50;91.81;100768.48;105247;1257;75512;-58
2023/08/14 06:47:50;;;;;;;5.30;3.90;;;;;;;23.54;91.25;100769.89;105271;1258;83306;-58
2023/08/14 06:50:17;;;;;;;7.80;4.20;;;;;;;23.59;90.88;100768.59;105301;1257;73868;-60
2023/08/14 06:52:46;;;;;;;4.80;3.50;;;;;;;23.64;90.47;100773.38;105076;1262;69090;-61
2023/08/14 06:55:13;;;;;;;6.00;3.90;;;;;;;23.66;89.75;100769.25;105448;1258;69191;-61
2023/08/14 06:57:39;;;;;;;4.20;3.80;;;;;;;23.70;89.45;100770.04;105402;1260;74601;-61
2023/08/14 07:00:13;;;;;;;4.70;4.00;;;;;;;23.73;89.03;100770.62;105323;1259;82710;-61
2023/08/14 07:02:40;;;;;;;5.40;4.20;;;;;;;23.76;88.44;100771.85;105274;1260;73484;-61
2023/08/14 07:05:11;;;;;;;6.50;4.10;;;;;;;23.75;87.87;100777.20;105445;1255;69307;-61
2023/08/14 07:07:39;;;;;;;7.40;4.00;;;;;;;23.77;87.45;100779.73;105250;1261;69084;-61
2023/08/14 07:10:07;;;;;;;4.60;4.10;;;;;;;23.77;87.13;100780.98;105267;1260;74460;-60
2023/08/14 07:12:34;;;;;;;4.30;3.90;;;;;;;23.79;86.68;100785.47;105315;1260;83720;-60
2023/08/14 07:15:01;;;;;;;4.80;3.90;;;;;;;23.79;86.21;100785.77;105433;1258;73481;-61
2023/08/14 07:17:29;;;;;;;5.10;4.20;;;;;;;23.80;86.07;100789.46;105484;1260;69182;-60
2023/08/14 07:19:56;;;;;;;5.00;4.30;;;;;;;23.82;85.99;100795.88;105233;1259;69177;-59
2023/08/14 07:22:23;;;;;;;4.70;4.20;;;;;;;23.88;85.99;100800.45;105221;1258;74567;-62
2023/08/14 07:24:49;;;;;;;5.50;4.10;;;;;;;23.90;85.30;100796.63;105224;1258;82417;-62
2023/08/14 07:27:17;;;;;;;6.30;4.10;;;;;;;23.92;84.79;100796.67;105296;1258;72571;-63
2023/08/14 07:29:44;;;;;;;6.10;4.20;;;;;;;23.95;84.78;100804.83;105244;1260;69917;-62
2023/08/14 07:32:11;;;;;;;5.00;3.90;;;;;;;24.01;84.58;100806.40;105318;1259;69121;-63
2023/08/14 07:34:38;;;;;;;4.60;4.10;;;;;;;24.06;84.41;100813.13;105286;1257;74677;-63
2023/08/14 07:37:05;;;;;;;5.90;3.90;;;;;;;24.15;84.61;100810.74;105355;1269;83257;-64
2023/08/14 07:39:32;;;;;;;5.30;3.70;;;;;;;24.24;84.11;100805.66;105306;1256;73846;-64
2023/08/14 07:41:59;;;;;;;4.70;3.50;;;;;;;24.30;83.69;100802.02;105314;1258;69119;-64
2023/08/14 07:44:26;;;;;;;4.30;3.80;;;;;;;24.35;83.11;100800.38;105106;1261;242093;-66
2023/08/14 07:46:52;;;;;;;4.30;3.90;;;;;;;24.39;82.97;100801.61;105311;1257;74713;-65
2023/08/14 07:49:19;;;;;;;4.00;3.60;;;;;;;24.45;82.79;100803.45;105301;1261;82559;-66
2023/08/14 07:51:46;;;;;;;4.30;3.60;;;;;;;24.52;82.47;100801.01;105288;1257;73894;-66
2023/08/14 07:54:13;;;;;;;4.30;3.90;;;;;;;24.60;82.13;100797.40;105306;1257;69090;-66
2023/08/14 07:56:40;;;;;;;4.20;3.80;;;;;;;24.67;81.70;100799.00;105298;1260;69306;-66
2023/08/14 07:59:11;;;;;;;4.40;4.00;;;;;;;24.74;81.37;100797.27;105311;1259;74727;-66
2023/08/14 08:01:38;;;;;;;5.90;3.70;;;;;;;24.82;81.10;100800.46;105303;1264;82253;-66
2023/08/14 08:04:05;;;;;;;4.70;3.60;;;;;;;24.89;80.70;100798.89;105370;1257;73621;-66
2023/08/14 08:06:32;;;;;;;5.60;3.60;;;;;;;24.97;80.38;100802.88;105299;1259;69140;-66
2023/08/14 08:09:10;;;;;;;5.60;4.10;;;;;;;25.05;80.37;100803.92;105274;1258;69116;-66
2023/08/14 08:11:37;;;;;;;4.10;3.70;;;;;;;25.13;79.94;100806.19;105372;1257;73347;-65
2023/08/14 08:14:07;;;;;;;3.80;3.40;;;;;;;25.21;79.57;100803.94;105277;1259;82494;-65
2023/08/14 08:16:37;;;;;;;4.80;3.90;;;;;;;25.25;79.14;100808.90;105308;1257;72646;-65
2023/08/14 08:19:05;;;;;;;4.90;3.70;;;;;;;25.31;79.33;100810.48;105326;1261;69073;-65
2023/08/14 08:21:32;;;;;;;5.00;3.90;;;;;;;25.43;78.94;100808.99;105294;1260;69327;-65
2023/08/14 08:23:59;;;;;;;6.00;4.10;;;;;;;25.49;78.47;100805.79;105098;1260;75949;-65
2023/08/14 08:26:26;;;;;;;4.30;3.40;;;;;;;25.59;78.49;100804.82;105259;1259;83296;-65
2023/08/14 08:28:53;;;;;;;8.10;4.40;;;;;;;25.70;78.37;100799.01;105352;1258;72649;-63
2023/08/14 08:31:20;;;;;;;14.20;7.40;;;;;;;25.84;78.16;100792.18;105314;1260;69193;-63
2023/08/14 08:33:48;;;;;;;19.40;7.50;;;;;;;25.98;77.77;100791.31;105324;1260;69643;-63
2023/08/14 08:36:17;;;;;;;44.20;18.00;;;;;;;26.10;77.38;100786.03;105295;1257;75944;-63
2023/08/14 08:38:45;;;;;;;5.60;4.00;;;;;;;26.24;77.34;100793.61;105333;1260;82906;-65
2023/08/14 08:41:14;;;;;;;6.30;4.40;;;;;;;26.35;76.67;100790.41;105274;1257;73870;-66
2023/08/14 08:43:41;;;;;;;6.70;4.20;;;;;;;26.43;75.87;100787.84;105319;1258;69138;-66
2023/08/14 08:46:09;;;;;;;4.20;3.80;;;;;;;26.49;75.60;100787.83;105313;1261;69155;-66
2023/08/14 08:48:40;;;;;;;3.50;3.20;;;;;;;26.59;75.38;100788.63;105331;1257;75534;-66
2023/08/14 08:51:09;;;;;;;5.60;3.60;;;;;;;26.68;75.04;100785.39;105338;1259;83574;-65
2023/08/14 08:53:36;;;;;;;5.90;3.80;;;;;;;26.80;74.96;100782.05;105312;1258;72702;-65
2023/08/14 08:56:03;;;;;;;5.00;3.50;;;;;;;26.95;74.16;100787.28;105366;1255;69176;-65
2023/08/14 08:58:31;;;;;;;3.70;3.30;;;;;;;27.03;73.48;100789.80;105332;1260;69081;-65
2023/08/14 09:00:59;;;;;;;4.00;3.70;;;;;;;27.09;73.22;100782.00;105348;1258;74556;-65
2023/08/14 09:03:26;;;;;;;4.60;3.70;;;;;;;27.17;72.92;100775.52;105349;1257;83361;-65
2023/08/14 09:05:54;;;;;;;4.10;3.70;;;;;;;27.31;72.81;100774.98;105150;1257;73965;-65
2023/08/14 09:08:21;;;;;;;4.30;3.40;;;;;;;27.43;72.61;100775.77;105276;1259;69174;-65
2023/08/14 09:10:47;;;;;;;4.40;3.80;;;;;;;27.56;72.37;100776.06;105365;1261;69193;-65
2023/08/14 09:13:14;;;;;;;4.00;3.40;;;;;;;27.73;72.09;100771.22;105350;1260;73831;-65
2023/08/14 09:15:43;;;;;;;3.80;3.40;;;;;;;27.89;71.82;100773.52;105358;1255;83646;-65
2023/08/14 09:18:10;;;;;;;4.40;3.40;;;;;;;28.07;71.25;100772.02;105328;1258;72560;-65
2023/08/14 09:20:40;;;;;;;3.60;3.20;;;;;;;28.25;70.61;100773.76;105333;1261;69218;-65
2023/08/14 09:23:12;;;;;;;3.70;3.20;;;;;;;28.33;70.03;100771.59;105304;1258;69161;-65
2023/08/14 09:25:46;;;;;;;3.70;3.20;;;;;;;28.46;70.01;100772.03;105150;1260;74546;-65
2023/08/14 09:28:13;;;;;;;3.30;3.00;;;;;;;28.55;69.70;100776.81;105322;1258;83588;-65
2023/08/14 09:30:40;;;;;;;4.20;3.00;;;;;;;28.62;69.21;100779.84;105289;1257;73665;-63
2023/08/14 09:33:09;;;;;;;4.00;3.10;;;;;;;28.64;68.61;100781.39;105346;1256;69196;-62
2023/08/14 09:35:37;;;;;;;3.50;3.00;;;;;;;28.69;68.30;100780.36;105342;1255;69165;-63
2023/08/14 09:38:05;;;;;;;5.50;3.40;;;;;;;28.81;68.15;100777.20;105384;1256;75721;-63
2023/08/14 09:40:32;;;;;;;4.10;3.10;;;;;;;28.95;67.40;100778.06;105190;1257;83350;-63
2023/08/14 09:43:00;;;;;;;5.10;3.00;;;;;;;28.96;66.61;100776.89;105135;1258;73696;-63
2023/08/14 09:45:34;;;;;;;7.20;3.30;;;;;;;28.97;66.42;100782.21;105259;1257;69258;-64
2023/08/14 09:48:03;;;;;;;3.20;2.90;;;;;;;29.06;66.01;100779.58;105354;1256;69184;-63
2023/08/14 09:50:30;;;;;;;;;;;;;;;29.18;65.68;100780.60;105351;1260;75488;-63
2023/08/14 09:52:59;;;;;;;3.20;2.80;;;;;;;29.32;65.74;100780.55;105336;1259;83499;-64
2023/08/14 09:55:29;;;;;;;4.20;2.70;;;;;;;29.49;65.35;100774.80;105290;1258;73445;-63
2023/08/14 09:57:56;;;;;;;5.70;2.90;;;;;;;29.65;64.46;100773.23;105317;1258;69112;-63
2023/08/14 10:00:28;;;;;;;3.70;2.80;;;;;;;29.74;63.90;100774.38;105323;1256;69153;-63
2023/08/14 10:02:55;;;;;;;3.20;2.90;;;;;;;29.86;63.92;100771.86;105170;1260;74677;-63
2023/08/14 10:05:23;;;;;;;4.10;2.80;;;;;;;29.98;63.16;100770.80;105312;1259;83178;-63
2023/08/14 10:07:53;;;;;;;4.40;2.90;;;;;;;30.14;63.46;100769.31;105107;1256;72670;-63
2023/08/14 10:10:25;;;;;;;4.10;3.10;;;;;;;30.39;63.25;100767.60;105369;1257;69057;-63
2023/08/14 10:13:04;;;;;;;3.60;2.60;;;;;;;30.55;62.17;100769.13;105361;1258;69671;-63
2023/08/14 10:15:37;;;;;;;;;;;;;;;30.71;61.80;100764.60;105329;1256;75547;-64
2023/08/14 10:18:09;;;;;;;3.80;2.70;;;;;;;30.89;60.84;100765.71;105312;1259;82408;-64
2023/08/14 10:20:37;;;;;;;4.60;2.70;;;;;;;31.01;59.96;100762.00;105346;1257;73942;-64
2023/08/14 10:23:06;;;;;;;3.10;2.50;;;;;;;31.20;59.80;100759.87;105138;1256;69157;-64
2023/08/14 10:25:37;;;;;;;3.80;2.40;;;;;;;31.51;59.75;100758.94;105338;1258;69120;-64
2023/08/14 10:28:07;;;;;;;4.00;2.80;;;;;;;31.73;58.99;100760.56;105381;1256;74731;-63
2023/08/14 10:30:34;;;;;;;2.50;2.30;;;;;;;32.00;58.55;100756.48;105333;1261;83248;-64
2023/08/14 10:33:02;;;;;;;2.50;2.30;;;;;;;32.20;57.78;100751.33;105240;1257;73513;-64
2023/08/14 10:35:43;;;;;;;5.00;2.40;;;;;;;32.37;56.96;100752.07;105153;1260;69116;-64
2023/08/14 10:38:10;;;;;;;2.40;2.10;;;;;;;32.57;56.40;100754.26;105134;1257;69171;-64
2023/08/14 10:40:50;;;;;;;4.20;2.20;;;;;;;32.78;55.76;100752.75;105205;1257;75437;-64
2023/08/14 10:43:28;;;;;;;2.80;2.20;;;;;;;32.96;54.73;100752.88;105168;1257;83100;-64
2023/08/14 10:45:55;;;;;;;3.70;2.00;;;;;;;33.12;54.32;100748.79;105161;1256;73774;-64
2023/08/14 10:48:23;;;;;;;3.60;2.10;;;;;;;33.41;53.86;100746.12;105116;1260;69165;-64
2023/08/14 10:50:59;;;;;;;2.90;2.20;;;;;;;33.59;53.21;100747.48;105127;1259;69090;-64
2023/08/14 10:53:30;;;;;;;3.60;2.50;;;;;;;33.73;52.41;100748.56;105364;1259;73836;-64
2023/08/14 10:55:58;;;;;;;2.90;2.20;;;;;;;33.84;51.84;100746.80;105340;1257;83306;-64
2023/08/14 10:58:28;;;;;;;3.30;1.70;;;;;;;33.84;51.25;100749.89;105384;1257;73962;-64
2023/08/14 11:00:56;;;;;;;6.10;2.00;;;;;;;33.98;50.48;100746.95;105265;1259;69174;-64
2023/08/14 11:03:23;;;;;;;3.10;1.90;;;;;;;34.11;50.01;100747.54;105271;1259;69193;-64
2023/08/14 11:05:50;;;;;;;2.20;2.00;;;;;;;34.25;49.75;100741.77;105236;1258;74651;-64
2023/08/14 11:08:18;;;;;;;3.60;1.80;;;;;;;34.50;49.71;100741.89;105226;1259;83477;-65
2023/08/14 11:10:45;;;;;;;2.20;1.90;;;;;;;34.74;49.16;100742.80;105335;1259;72638;-65
2023/08/14 11:13:12;;;;;;;3.20;2.10;;;;;;;34.96;48.98;100736.80;105329;1256;69139;-65
2023/08/14 11:15:40;;;;;;;3.20;1.80;;;;;;;35.17;48.01;100738.37;105390;1258;69178;-66
2023/08/14 11:18:12;;;;;;;1.90;1.70;;;;;;;35.34;47.33;100739.23;105370;1258;75645;-66
2023/08/14 11:20:43;;;;;;;3.10;2.10;;;;;;;35.53;46.91;100737.36;105281;1260;83296;-65